Terminal Aerodrome Forecast
Issued by NWS

Home | Current Version | Previous Version | Text Only | Print | Product List | Glossary On
Versions: 1 2 3 4 5 6 7 8 9 10 11 12 13 14
147
FTUS42 KFFC 251738
TAFRYY
TAF
KRYY 251738Z 2518/2618 27004KT P6SM SCT035
     FM252000 04006KT P6SM SCT050 SCT250
     FM260100 08004KT P6SM SCT250
     FM261500 05005KT P6SM SCT045=

USA.gov is the U.S. government's official web portal to all federal, state and local government web resources and services.